Providence, Rhode Island
Traffic Map
Current Weather Conditions
Providence, Rhode Island
Scattered Clouds
Scattered Clouds
71°
Feels Like: 71°
Wind Chill: 71° Ceiling: Unl
Heat Index: 71° Visibility: 10mi
Dew Point: 56° Wind: 9mph
Humidity: 59% Direction: 160° (SSE)
Pressure: 30.2in Gusts: 0mph
Raw Report DataKPVD 292151Z 16008KT 10SM FEW055 SCT250 22/13 A3020 RMK AO2 SLP228 T02170133
Traffic Incident Summary
Active as of:
Severity:
Category:
InformationThere was an issue retrieving the traffic information for this location. Please try a different location or try again shortly.
Advertisements
Track Severe Weather on mobile